Time;durP1;ratioP1;P1;durP2;ratioP2;P2;SDS_P1;SDS_P2;PMS_P1;PMS_P2;Temp;Humidity;BMP_temperature;BMP_pressure;BME280_temperature;BME280_humidity;BME280_pressure;Samples;Min_cycle;Max_cycle;Signal;HPM_P1;HPM_P2
2021/09/14 00:01:50;;;;;;;2.33;1.67;;;9.70;99.90;;;;;;4998423;28;20034;-79
2021/09/14 00:04:16;;;;;;;2.38;1.75;;;9.60;99.90;;;;;;4987282;28;20074;-76
2021/09/14 00:06:42;;;;;;;2.17;1.38;;;9.70;99.90;;;;;;4996646;28;20088;-76
2021/09/14 00:09:08;;;;;;;2.50;1.85;;;9.60;99.90;;;;;;4997109;28;20124;-78
2021/09/14 00:11:35;;;;;;;1.90;1.40;;;9.60;99.90;;;;;;5001029;28;20077;-77
2021/09/14 00:14:00;;;;;;;2.70;1.20;;;9.60;99.90;;;;;;5011321;28;20041;-77
2021/09/14 00:16:26;;;;;;;2.55;1.63;;;9.60;99.90;;;;;;5019661;28;20050;-78
2021/09/14 00:18:52;;;;;;;2.70;1.67;;;9.50;99.90;;;;;;4999112;28;20046;-77
2021/09/14 00:21:18;;;;;;;1.45;0.98;;;9.50;99.90;;;;;;4994134;28;20045;-78
2021/09/14 00:23:44;;;;;;;1.83;1.10;;;9.50;99.90;;;;;;4999496;28;20097;-77
2021/09/14 00:26:10;;;;;;;4.90;2.00;;;9.50;99.90;;;;;;4992522;28;20054;-78
2021/09/14 00:28:36;;;;;;;1.48;1.30;;;9.50;99.90;;;;;;4990961;28;20400;-78
2021/09/14 00:31:01;;;;;;;0.98;0.85;;;9.50;99.90;;;;;;4975350;28;20117;-78
2021/09/14 00:33:28;;;;;;;4.32;1.63;;;9.50;99.90;;;;;;5006179;28;20065;-78
2021/09/14 00:35:53;;;;;;;0.80;0.80;;;9.40;99.90;;;;;;4979459;28;20054;-78
2021/09/14 00:38:19;;;;;;;0.55;0.52;;;9.40;99.90;;;;;;5003138;28;20400;-78
2021/09/14 00:40:45;;;;;;;4.18;1.52;;;9.40;99.90;;;;;;4991522;28;20043;-78
2021/09/14 00:43:21;;;;;;;4.03;1.30;;;9.40;99.90;;;;;;5001593;28;20077;-78
2021/09/14 00:45:48;;;;;;;1.95;1.23;;;9.40;99.90;;;;;;4976899;28;20042;-77
2021/09/14 00:48:14;;;;;;;2.28;1.35;;;9.40;99.90;;;;;;5002685;28;20057;-77
2021/09/14 00:50:40;;;;;;;;;;;9.40;99.90;;;;;;4995312;28;20684;-76
2021/09/14 00:53:06;;;;;;;2.10;1.52;;;9.30;99.90;;;;;;5036005;28;19957;-78
2021/09/14 00:55:32;;;;;;;1.95;1.77;;;9.30;99.90;;;;;;5005821;28;20069;-77
2021/09/14 00:57:57;;;;;;;1.95;1.55;;;9.30;99.90;;;;;;4999146;28;20038;-77
2021/09/14 01:00:23;;;;;;;1.02;0.98;;;9.30;99.90;;;;;;4991983;28;20137;-77
2021/09/14 01:02:50;;;;;;;2.10;1.55;;;9.30;99.90;;;;;;5004863;28;20495;-77
2021/09/14 01:05:16;;;;;;;11.25;2.75;;;9.30;99.90;;;;;;5011635;28;20507;-77
2021/09/14 01:07:43;;;;;;;2.67;1.85;;;9.40;99.90;;;;;;5008851;28;20637;-77
2021/09/14 01:10:13;;;;;;;1.70;1.60;;;9.30;99.90;;;;;;4991532;28;20081;-77
2021/09/14 01:12:40;;;;;;;2.50;1.60;;;9.30;99.90;;;;;;4990460;28;20038;-78
2021/09/14 01:15:07;;;;;;;1.15;1.05;;;9.20;99.90;;;;;;4991381;28;20053;-78
2021/09/14 01:17:33;;;;;;;1.33;1.23;;;9.30;99.90;;;;;;5004707;28;20096;-78
2021/09/14 01:19:59;;;;;;;2.13;1.58;;;9.20;99.90;;;;;;4990281;28;20528;-78
2021/09/14 01:22:43;;;;;;;1.65;1.10;;;9.30;99.90;;;;;;5010057;28;20069;-76
2021/09/14 01:25:18;;;;;;;1.48;1.38;;;9.20;99.90;;;;;;5008697;28;20447;-77
2021/09/14 01:27:44;;;;;;;1.37;1.27;;;9.20;99.90;;;;;;4991908;28;20044;-78
2021/09/14 01:30:12;;;;;;;1.30;1.02;;;9.30;99.90;;;;;;4990748;28;20392;-77
2021/09/14 01:32:41;;;;;;;1.02;0.90;;;9.30;99.90;;;;;;4994934;28;20093;-77
2021/09/14 01:35:13;;;;;;;0.82;0.82;;;9.20;99.90;;;;;;5001548;28;20480;-78
2021/09/14 01:37:39;;;;;;;1.48;1.33;;;9.10;99.90;;;;;;4982252;28;20583;-79
2021/09/14 01:40:05;;;;;;;1.98;1.83;;;9.10;99.90;;;;;;4985022;28;20137;-79
2021/09/14 01:42:31;;;;;;;;;;;9.10;99.90;;;;;;4996132;28;20046;-78
2021/09/14 01:44:56;;;;;;;2.70;1.88;;;9.10;99.90;;;;;;4999544;28;19922;-78
2021/09/14 01:47:22;;;;;;;1.27;1.17;;;9.10;99.90;;;;;;4996228;28;20050;-78
2021/09/14 01:49:47;;;;;;;2.30;1.65;;;9.10;99.90;;;;;;5000637;28;20491;-77
2021/09/14 01:52:13;;;;;;;1.30;1.20;;;9.10;99.90;;;;;;4994341;28;20119;-78
2021/09/14 01:54:39;;;;;;;1.48;1.23;;;9.10;99.90;;;;;;4996041;28;20061;-78
2021/09/14 01:57:05;;;;;;;1.52;1.00;;;9.10;99.90;;;;;;5008149;28;20045;-78
2021/09/14 01:59:32;;;;;;;1.85;1.67;;;9.10;99.90;;;;;;5001501;28;20077;-78
2021/09/14 02:02:10;;;;;;;2.10;1.27;;;9.00;99.90;;;;;;5009407;28;20176;-78
2021/09/14 02:39:50;;;;;;;1.70;1.05;;;9.30;99.90;;;;;;5006503;28;20396;-79
2021/09/14 02:56:13;;;;;;;1.95;1.58;;;9.60;99.90;;;;;;4998543;28;20044;-79
2021/09/14 02:58:51;;;;;;;3.05;2.42;;;10.20;99.90;;;;;;4986319;28;20053;-77
2021/09/14 03:01:17;;;;;;;3.03;2.13;;;10.30;99.90;;;;;;4998754;28;20046;-78
2021/09/14 03:03:46;;;;;;;;;;;10.40;99.90;;;;;;4979595;28;20049;-80
2021/09/14 03:06:12;;;;;;;1.05;1.02;;;10.50;99.90;;;;;;5031198;28;20431;-79
2021/09/14 03:08:39;;;;;;;1.70;1.60;;;10.50;99.90;;;;;;4992932;28;20074;-77
2021/09/14 03:11:14;;;;;;;2.88;2.08;;;10.60;99.90;;;;;;4980611;28;20457;-78
2021/09/14 03:13:40;;;;;;;2.08;1.48;;;10.60;99.90;;;;;;4992634;28;20452;-78
2021/09/14 03:16:08;;;;;;;3.22;2.00;;;10.70;99.90;;;;;;5001482;28;20054;-78
2021/09/14 03:18:34;;;;;;;1.67;1.35;;;10.70;99.90;;;;;;4967137;28;20052;-79
2021/09/14 03:21:00;;;;;;;;;;;10.80;99.90;;;;;;5006858;28;20041;-79
2021/09/14 03:23:26;;;;;;;13.85;1.42;;;10.90;99.90;;;;;;5007337;28;19921;-77
2021/09/14 03:25:51;;;;;;;2.15;1.63;;;10.90;99.90;;;;;;4994484;28;20097;-78
2021/09/14 03:28:17;;;;;;;2.90;1.42;;;10.90;99.90;;;;;;4992963;28;20046;-77
2021/09/14 03:30:43;;;;;;;3.20;1.65;;;10.90;99.90;;;;;;5003666;28;20041;-78
2021/09/14 03:33:09;;;;;;;2.78;1.25;;;11.00;99.90;;;;;;4993114;28;20070;-77
2021/09/14 03:35:36;;;;;;;1.98;1.45;;;11.10;99.90;;;;;;4988552;28;20377;-79
2021/09/14 03:38:02;;;;;;;2.35;2.05;;;11.10;99.90;;;;;;4997993;28;20125;-78
2021/09/14 03:40:28;;;;;;;;;;;11.10;99.90;;;;;;4994148;28;20455;-79
2021/09/14 03:42:53;;;;;;;1.60;1.30;;;11.20;99.90;;;;;;4992261;28;20021;-77
2021/09/14 03:45:19;;;;;;;4.20;1.40;;;11.20;99.90;;;;;;4986932;28;20046;-79
2021/09/14 03:47:45;;;;;;;1.00;1.00;;;11.20;99.90;;;;;;4976858;28;20042;-78
2021/09/14 03:50:11;;;;;;;3.70;1.75;;;11.20;99.90;;;;;;4984921;28;20048;-78
2021/09/14 03:52:36;;;;;;;;;;;11.20;99.90;;;;;;4994355;28;20042;-78
2021/09/14 03:55:03;;;;;;;3.58;1.83;;;11.30;99.90;;;;;;5033968;28;20001;-78
2021/09/14 03:57:29;;;;;;;1.17;1.08;;;11.30;99.90;;;;;;5013886;28;20043;-79
2021/09/14 03:59:55;;;;;;;3.50;2.17;;;11.30;99.90;;;;;;5000472;28;20042;-78
2021/09/14 04:05:04;;;;;;;2.05;1.55;;;11.40;99.90;;;;;;5005639;28;20126;-78
2021/09/14 04:10:15;;;;;;;4.18;1.90;;;11.40;99.90;;;;;;5031728;28;20503;-78
2021/09/14 04:12:41;;;;;;;1.40;0.88;;;11.50;99.90;;;;;;5008299;28;20038;-77
2021/09/14 04:15:07;;;;;;;1.85;1.48;;;11.40;99.90;;;;;;5022124;28;20061;-76
2021/09/14 04:17:33;;;;;;;;;;;11.50;99.90;;;;;;4995804;28;20042;-78
2021/09/14 04:19:58;;;;;;;2.42;1.45;;;11.50;99.90;;;;;;4991623;28;19930;-77
2021/09/14 04:22:24;;;;;;;2.83;1.30;;;11.50;99.90;;;;;;4999067;28;20034;-78
2021/09/14 04:24:50;;;;;;;1.42;1.08;;;11.50;99.90;;;;;;4981837;28;20065;-78
2021/09/14 04:27:15;;;;;;;5.72;3.00;;;11.60;99.90;;;;;;5006623;28;20443;-79
2021/09/14 04:29:41;;;;;;;4.18;1.83;;;11.50;99.90;;;;;;4994670;28;20046;-79
2021/09/14 04:32:07;;;;;;;3.88;1.35;;;11.60;99.90;;;;;;4994576;28;20061;-77
2021/09/14 04:34:33;;;;;;;3.22;1.45;;;11.50;99.90;;;;;;4994378;28;20157;-78
2021/09/14 04:36:58;;;;;;;1.98;1.40;;;11.50;99.90;;;;;;4982447;28;20049;-78
2021/09/14 04:39:24;;;;;;;1.75;1.60;;;11.50;99.90;;;;;;4979424;28;20034;-76
2021/09/14 04:41:50;;;;;;;1.73;1.52;;;11.50;99.90;;;;;;4981877;28;20480;-77
2021/09/14 04:44:15;;;;;;;2.65;1.25;;;11.50;99.90;;;;;;5004697;28;20113;-78
2021/09/14 04:46:41;;;;;;;1.63;1.40;;;11.50;99.90;;;;;;4979234;28;20404;-78
2021/09/14 04:49:07;;;;;;;3.55;2.13;;;11.50;99.90;;;;;;4989156;28;20038;-78
2021/09/14 04:51:33;;;;;;;2.35;1.67;;;11.50;99.90;;;;;;4985158;28;20543;-77
2021/09/14 04:53:59;;;;;;;2.92;1.83;;;11.50;99.90;;;;;;4968737;28;20042;-78
2021/09/14 04:56:24;;;;;;;2.22;1.73;;;11.50;99.90;;;;;;4992920;28;20046;-78
2021/09/14 04:58:50;;;;;;;1.10;1.00;;;11.50;99.90;;;;;;5009526;28;20046;-78
2021/09/14 05:01:20;;;;;;;3.03;2.63;;;11.40;99.90;;;;;;5011039;28;20116;-77
2021/09/14 05:03:47;;;;;;;2.85;1.88;;;11.40;99.90;;;;;;5007379;28;20103;-78
2021/09/14 05:06:14;;;;;;;1.67;1.58;;;11.30;99.90;;;;;;5010239;28;20502;-77
2021/09/14 05:08:39;;;;;;;;;;;11.20;99.90;;;;;;5005638;28;20045;-79
2021/09/14 05:11:06;;;;;;;1.67;1.58;;;11.10;99.90;;;;;;5043898;28;19924;-78
2021/09/14 05:13:32;;;;;;;3.63;1.88;;;11.00;99.90;;;;;;5011750;28;20042;-77
2021/09/14 05:15:58;;;;;;;2.67;1.90;;;11.00;99.90;;;;;;5011020;28;20400;-77
2021/09/14 05:18:25;;;;;;;3.40;1.38;;;10.90;99.90;;;;;;4993073;28;20057;-78
2021/09/14 05:20:52;;;;;;;2.22;1.30;;;10.90;99.90;;;;;;5010053;28;20058;-78
2021/09/14 05:23:30;;;;;;;2.08;1.95;;;10.90;99.90;;;;;;4999100;28;20058;-77
2021/09/14 05:25:57;;;;;;;2.70;1.40;;;10.80;99.90;;;;;;5002757;28;20384;-78
2021/09/14 05:28:23;;;;;;;2.33;1.88;;;10.80;99.90;;;;;;5009658;28;20076;-78
2021/09/14 05:30:49;;;;;;;1.00;0.98;;;10.80;99.90;;;;;;5010291;28;20164;-77
2021/09/14 05:33:15;;;;;;;1.27;1.17;;;10.70;99.90;;;;;;5008977;28;20053;-77
2021/09/14 05:35:50;;;;;;;1.58;1.45;;;10.70;99.90;;;;;;4994114;28;20057;-78
2021/09/14 05:38:17;;;;;;;1.33;1.08;;;10.70;99.90;;;;;;5005053;28;20038;-77
2021/09/14 05:40:44;;;;;;;2.05;1.38;;;10.70;99.90;;;;;;5008974;28;20377;-75
2021/09/14 05:43:10;;;;;;;1.33;1.13;;;10.80;99.90;;;;;;5007217;28;20053;-78
2021/09/14 05:45:36;;;;;;;;;;;10.80;99.90;;;;;;5008514;28;20119;-75
2021/09/14 05:48:02;;;;;;;3.35;1.98;;;10.90;99.90;;;;;;5028678;28;20395;-81
2021/09/14 05:50:28;;;;;;;1.13;1.05;;;10.90;99.90;;;;;;5000354;28;20046;-80
2021/09/14 05:52:54;;;;;;;2.75;1.83;;;10.90;99.90;;;;;;5007933;28;20373;-78
2021/09/14 05:55:20;;;;;;;2.70;2.13;;;11.00;99.90;;;;;;5008678;28;20124;-82
2021/09/14 05:57:46;;;;;;;2.50;1.75;;;11.00;99.90;;;;;;5001706;28;20626;-79
2021/09/14 06:00:12;;;;;;;;;;;11.10;99.90;;;;;;5009437;28;20084;-79
2021/09/14 06:02:38;;;;;;;2.10;1.42;;;11.10;99.90;;;;;;5043634;28;19940;-82
2021/09/14 06:05:05;;;;;;;2.95;1.65;;;11.20;99.90;;;;;;5012653;28;20046;-75
2021/09/14 06:07:30;;;;;;;1.40;1.30;;;11.20;99.90;;;;;;5008562;28;20042;-77
2021/09/14 06:09:57;;;;;;;2.78;2.35;;;11.20;99.90;;;;;;5006506;28;20053;-77
2021/09/14 06:12:23;;;;;;;2.65;2.42;;;11.30;99.90;;;;;;5035790;28;20041;-77
2021/09/14 06:14:49;;;;;;;4.18;1.17;;;11.40;99.90;;;;;;5007923;28;20069;-76
2021/09/14 06:17:15;;;;;;;2.10;1.30;;;11.50;99.90;;;;;;5006403;28;20108;-77
2021/09/14 06:19:41;;;;;;;3.17;1.42;;;11.60;99.90;;;;;;5006216;28;20049;-77
2021/09/14 06:22:06;;;;;;;2.42;1.52;;;11.70;99.90;;;;;;5008098;28;20451;-78
2021/09/14 06:24:32;;;;;;;4.68;1.90;;;11.90;99.90;;;;;;5010355;28;20524;-77
2021/09/14 06:26:58;;;;;;;1.23;1.13;;;11.90;99.90;;;;;;5004655;28;20045;-79
2021/09/14 06:29:24;;;;;;;1.45;1.27;;;12.00;99.90;;;;;;5001638;28;20081;-74
2021/09/14 06:31:49;;;;;;;1.65;1.55;;;12.10;99.90;;;;;;5018582;28;20037;-80
2021/09/14 06:34:15;;;;;;;2.05;1.83;;;12.20;99.90;;;;;;5010482;28;20113;-80
2021/09/14 06:36:41;;;;;;;3.63;1.98;;;12.30;99.90;;;;;;5008713;28;20108;-75
2021/09/14 06:39:06;;;;;;;2.90;2.10;;;12.40;99.90;;;;;;5010282;28;20081;-74
2021/09/14 06:41:32;;;;;;;1.17;1.00;;;12.50;99.90;;;;;;5010376;28;20096;-79
2021/09/14 06:43:58;;;;;;;2.72;1.60;;;12.70;99.90;;;;;;4992167;28;20170;-78
2021/09/14 06:46:25;;;;;;;2.88;1.42;;;12.80;99.90;;;;;;5008857;28;20058;-76
2021/09/14 06:48:51;;;;;;;6.15;1.48;;;12.90;99.90;;;;;;4994623;28;20435;-76
2021/09/14 06:51:17;;;;;;;2.10;1.63;;;13.10;99.90;;;;;;4994456;28;20038;-75
2021/09/14 06:53:43;;;;;;;;;;;13.20;99.90;;;;;;5014152;28;20057;-77
2021/09/14 06:56:09;;;;;;;2.55;1.67;;;13.30;99.90;;;;;;5044114;28;19925;-78
2021/09/14 06:58:35;;;;;;;3.45;2.38;;;13.40;99.90;;;;;;5017067;28;20442;-77
2021/09/14 07:01:01;;;;;;;2.20;1.85;;;13.50;99.90;;;;;;5016326;28;20061;-78
2021/09/14 07:03:27;;;;;;;1.90;1.50;;;13.50;99.90;;;;;;5014587;28;20448;-81
2021/09/14 07:05:53;;;;;;;3.42;1.35;;;13.70;99.90;;;;;;5018468;28;20038;-80
2021/09/14 07:08:18;;;;;;;3.08;2.03;;;13.80;99.90;;;;;;4994751;28;20089;-82
2021/09/14 07:10:44;;;;;;;4.72;1.67;;;13.90;99.90;;;;;;5009785;28;20041;-78
2021/09/14 07:13:10;;;;;;;3.13;1.83;;;13.80;99.90;;;;;;5011871;28;21629;-77
2021/09/14 07:15:36;;;;;;;5.40;2.17;;;14.10;99.90;;;;;;5002710;28;20502;-78
2021/09/14 07:18:02;;;;;;;2.50;1.65;;;14.20;99.90;;;;;;5016041;28;20041;-78
2021/09/14 07:20:28;;;;;;;2.15;1.70;;;14.30;99.90;;;;;;4981867;28;20048;-79
2021/09/14 07:22:54;;;;;;;1.88;1.27;;;14.40;99.90;;;;;;5010012;28;20120;-81
2021/09/14 07:25:19;;;;;;;;;;;14.50;99.90;;;;;;5013034;28;20496;-80
2021/09/14 07:27:46;;;;;;;2.03;1.35;;;14.60;99.90;;;;;;5007012;28;19922;-80
2021/09/14 07:30:12;;;;;;;2.20;1.88;;;14.70;99.90;;;;;;4994422;28;20042;-79
2021/09/14 07:32:38;;;;;;;2.40;1.50;;;14.70;99.90;;;;;;5011637;28;20083;-77
2021/09/14 07:35:05;;;;;;;1.27;1.17;;;14.80;99.90;;;;;;5000576;28;20054;-81
2021/09/14 07:37:31;;;;;;;1.15;1.05;;;14.90;99.90;;;;;;5013591;28;20042;-80
2021/09/14 07:39:57;;;;;;;2.47;1.65;;;15.00;99.90;;;;;;5041003;28;20044;-76
2021/09/14 07:42:23;;;;;;;2.40;1.08;;;15.10;99.90;;;;;;4992666;28;20141;-79
2021/09/14 07:44:50;;;;;;;;;;;15.20;99.90;;;;;;5017859;28;20049;-77
2021/09/14 07:47:16;;;;;;;2.90;2.00;;;15.30;99.90;;;;;;4991776;28;20028;-77
2021/09/14 07:49:42;;;;;;;3.53;1.80;;;15.20;99.90;;;;;;4992439;28;20033;-78
2021/09/14 07:52:08;;;;;;;5.38;2.10;;;15.40;99.90;;;;;;4991960;28;20186;-77
2021/09/14 07:54:33;;;;;;;;;;;15.50;99.90;;;;;;5001445;28;20137;-78
2021/09/14 07:56:59;;;;;;;1.95;1.38;;;;;;;;;;5041635;28;19979;-77
2021/09/14 07:59:25;;;;;;;;;;;15.60;99.90;;;;;;4992976;28;20050;-79
2021/09/14 08:01:51;;;;;;;4.07;2.90;;;15.70;99.90;;;;;;4991492;28;19940;-78
2021/09/14 08:04:16;;;;;;;15.93;3.20;;;15.80;99.90;;;;;;5008111;28;20044;-78
2021/09/14 08:06:42;;;;;;;;;;;15.90;99.90;;;;;;5009224;28;20125;-77
2021/09/14 08:09:08;;;;;;;5.53;2.35;;;15.90;99.90;;;;;;5038129;28;20531;-80
2021/09/14 08:11:35;;;;;;;7.82;2.72;;;16.10;99.90;;;;;;5003722;28;20495;-79
2021/09/14 08:14:00;;;;;;;2.60;1.77;;;16.20;99.90;;;;;;5008367;28;20053;-78
2021/09/14 08:16:26;;;;;;;3.53;2.65;;;16.30;99.90;;;;;;5016490;28;20042;-77
2021/09/14 08:18:52;;;;;;;3.45;1.65;;;16.40;99.90;;;;;;4971700;28;20122;-79
2021/09/14 08:21:17;;;;;;;;;;;16.50;99.90;;;;;;5008866;28;20704;-80
2021/09/14 08:23:43;;;;;;;2.17;1.98;;;16.50;99.90;;;;;;5035501;28;19921;-80
2021/09/14 08:26:09;;;;;;;;;;;16.60;99.90;;;;;;4991602;28;20049;-79
2021/09/14 08:28:35;;;;;;;9.70;3.60;;;16.80;99.90;;;;;;5001130;28;19921;-78
2021/09/14 08:31:00;;;;;;;;;;;16.90;99.90;;;;;;4976878;28;20124;-79
2021/09/14 08:33:26;;;;;;;3.50;2.47;;;16.90;99.90;;;;;;4998870;28;19968;-77
2021/09/14 08:35:52;;;;;;;3.10;2.13;;;16.90;99.90;;;;;;4988536;28;20100;-81
2021/09/14 08:38:18;;;;;;;6.28;2.70;;;16.90;99.90;;;;;;4988827;28;20053;-79
2021/09/14 08:40:44;;;;;;;;;;;17.00;99.90;;;;;;4988762;28;20127;-75
2021/09/14 08:43:12;;;;;;;3.88;2.97;;;17.00;99.90;;;;;;4975293;28;20094;-79
2021/09/14 08:45:38;;;;;;;4.50;2.55;;;17.00;99.90;;;;;;4991393;28;20099;-78
2021/09/14 08:48:04;;;;;;;;;;;17.10;99.90;;;;;;4982688;28;20046;-78
2021/09/14 08:50:30;;;;;;;2.78;2.30;;;17.10;99.90;;;;;;4972643;28;20553;-77
2021/09/14 08:52:56;;;;;;;;;;;17.10;99.90;;;;;;4989493;28;20084;-80
2021/09/14 08:55:22;;;;;;;5.43;2.22;;;17.20;99.90;;;;;;4988515;28;19918;-78
2021/09/14 08:57:54;;;;;;;;;;;17.20;99.90;;;;;;4998363;28;20093;-84
2021/09/14 09:00:31;;;;;;;5.88;2.85;;;17.30;99.90;;;;;;4988464;28;20406;-80
2021/09/14 09:02:58;;;;;;;7.75;3.47;;;17.40;99.90;;;;;;5019963;28;20101;-76
2021/09/14 09:05:33;;;;;;;12.25;3.78;;;17.50;99.90;;;;;;4972696;28;20054;-77
2021/09/14 09:08:01;;;;;;;4.88;2.67;;;17.50;99.90;;;;;;4984698;28;20512;-78
2021/09/14 09:10:27;;;;;;;5.53;3.22;;;17.60;99.90;;;;;;4993974;28;20122;-78
2021/09/14 09:12:53;;;;;;;6.60;3.30;;;17.70;99.90;;;;;;4995854;28;20039;-79
2021/09/14 09:15:26;;;;;;;6.38;3.45;;;17.80;99.90;;;;;;4990020;28;20096;-76
2021/09/14 09:18:02;;;;;;;4.35;2.35;;;17.80;99.90;;;;;;4994299;28;20045;-76
2021/09/14 09:20:28;;;;;;;6.35;3.55;;;17.90;99.90;;;;;;4991422;28;20145;-77
2021/09/14 09:23:07;;;;;;;7.13;3.90;;;18.10;99.90;;;;;;4985924;28;20053;-75
2021/09/14 09:25:34;;;;;;;5.00;3.40;;;18.20;99.90;;;;;;5007146;28;20108;-77
2021/09/14 09:28:08;;;;;;;8.75;4.53;;;18.30;99.90;;;;;;4990336;28;20092;-76
2021/09/14 09:30:36;;;;;;;5.20;3.28;;;18.30;99.90;;;;;;5003845;28;20082;-76
2021/09/14 09:33:04;;;;;;;5.97;3.88;;;18.40;99.90;;;;;;4990166;28;20062;-76
2021/09/14 09:35:35;;;;;;;8.25;4.45;;;18.40;99.90;;;;;;4975088;28;20104;-77
2021/09/14 09:38:02;;;;;;;3.83;2.92;;;18.40;99.90;;;;;;4990413;28;20121;-76
2021/09/14 09:40:42;;;;;;;3.85;2.88;;;18.50;99.90;;;;;;5002436;28;20503;-74
2021/09/14 09:43:09;;;;;;;10.75;3.30;;;18.50;99.90;;;;;;4991055;28;20096;-78
2021/09/14 09:45:47;;;;;;;5.78;3.08;;;18.50;99.90;;;;;;4989917;28;20160;-75
2021/09/14 09:48:16;;;;;;;5.20;3.03;;;18.50;99.90;;;;;;4990036;28;20455;-79
2021/09/14 09:50:43;;;;;;;3.72;2.65;;;18.60;99.90;;;;;;4988187;28;20388;-76
2021/09/14 09:53:11;;;;;;;6.55;2.85;;;18.70;99.90;;;;;;4992937;28;20057;-75
2021/09/14 09:55:38;;;;;;;12.52;3.33;;;18.90;99.90;;;;;;4988595;28;20122;-77
2021/09/14 09:58:07;;;;;;;4.68;2.80;;;19.10;99.90;;;;;;4991002;28;20046;-77
2021/09/14 10:00:37;;;;;;;5.03;3.58;;;19.20;99.90;;;;;;4979632;28;20050;-78
2021/09/14 10:03:08;;;;;;;3.83;2.97;;;19.30;99.90;;;;;;5003984;28;20093;-76
2021/09/14 10:05:37;;;;;;;4.03;2.50;;;19.40;99.90;;;;;;4991494;28;20057;-77
2021/09/14 10:08:09;;;;;;;4.45;3.13;;;19.50;99.90;;;;;;4991042;28;20056;-77
2021/09/14 10:10:40;;;;;;;5.63;2.55;;;19.50;99.90;;;;;;4992960;28;20488;-76
2021/09/14 10:13:10;;;;;;;3.30;2.17;;;19.60;99.90;;;;;;4992985;28;20040;-76
2021/09/14 10:15:45;;;;;;;7.07;3.25;;;19.70;99.90;;;;;;4994568;28;20377;-78
2021/09/14 10:18:12;;;;;;;2.85;2.10;;;19.80;99.90;;;;;;5010490;28;20042;-77
2021/09/14 10:20:43;;;;;;;4.97;2.72;;;19.80;99.90;;;;;;4994861;28;20046;-77
2021/09/14 10:23:23;;;;;;;3.35;2.08;;;19.70;99.90;;;;;;5003314;28;20054;-79
2021/09/14 10:25:52;;;;;;;6.32;3.03;;;19.60;99.90;;;;;;4987314;28;20408;-77
2021/09/14 10:28:19;;;;;;;6.32;3.40;;;19.50;99.90;;;;;;5018829;28;20044;-76
2021/09/14 10:30:47;;;;;;;4.18;2.40;;;19.40;99.90;;;;;;5007186;28;20033;-77
2021/09/14 10:33:21;;;;;;;4.57;2.80;;;19.40;99.90;;;;;;5002650;28;20054;-76
2021/09/14 10:35:47;;;;;;;6.05;3.53;;;19.40;99.90;;;;;;4998671;28;20041;-77
2021/09/14 10:38:14;;;;;;;4.70;2.53;;;19.40;99.90;;;;;;5007587;28;20049;-76
2021/09/14 10:40:48;;;;;;;4.85;2.88;;;19.50;99.90;;;;;;4992834;28;20049;-74
2021/09/14 10:43:22;;;;;;;2.83;2.33;;;19.60;99.90;;;;;;5019259;28;20049;-76
2021/09/14 10:45:48;;;;;;;4.57;3.45;;;19.70;99.90;;;;;;4989684;28;20041;-75
2021/09/14 10:48:21;;;;;;;8.52;3.58;;;19.90;99.90;;;;;;5009015;28;20057;-75
2021/09/14 10:50:46;;;;;;;4.63;2.80;;;20.10;99.90;;;;;;4993237;28;20157;-75
2021/09/14 10:53:26;;;;;;;14.27;3.40;;;20.30;99.90;;;;;;4976632;28;20065;-78
2021/09/14 10:55:58;;;;;;;4.80;3.20;;;20.40;99.90;;;;;;4992952;28;20041;-76
2021/09/14 10:58:25;;;;;;;9.38;3.83;;;20.50;99.90;;;;;;5008950;28;20045;-77
2021/09/14 11:00:51;;;;;;;5.00;2.83;;;20.60;99.90;;;;;;4994111;28;20046;-76
2021/09/14 11:03:18;;;;;;;4.63;2.72;;;20.70;99.90;;;;;;5008561;28;20535;-75
2021/09/14 11:05:56;;;;;;;9.52;3.95;;;20.70;99.90;;;;;;5009800;28;20077;-77
2021/09/14 11:08:23;;;;;;;9.35;4.28;;;20.80;99.90;;;;;;5007477;28;20986;-77
2021/09/14 11:10:50;;;;;;;6.18;3.92;;;20.80;99.90;;;;;;5008785;28;20046;-77
2021/09/14 11:13:22;;;;;;;5.85;3.13;;;20.80;99.90;;;;;;4992737;28;20046;-80
2021/09/14 11:15:56;;;;;;;5.40;2.95;;;20.90;99.90;;;;;;5013627;28;20046;-79
2021/09/14 11:18:23;;;;;;;4.47;2.28;;;21.00;99.90;;;;;;5009591;28;20050;-77
2021/09/14 11:20:49;;;;;;;5.15;2.97;;;21.10;99.90;;;;;;5009673;28;20400;-77
2021/09/14 11:23:23;;;;;;;4.40;3.10;;;21.10;99.90;;;;;;5006365;28;20042;-77
2021/09/14 11:25:48;;;;;;;3.60;2.53;;;21.10;99.90;;;;;;5009041;28;20057;-78
2021/09/14 11:28:17;;;;;;;7.13;3.10;;;21.20;99.90;;;;;;4992397;28;20046;-78
2021/09/14 11:30:55;;;;;;;4.95;2.60;;;21.20;99.90;;;;;;5009760;28;20120;-79
2021/09/14 11:33:22;;;;;;;7.47;2.70;;;21.30;99.90;;;;;;4991227;28;20141;-78
2021/09/14 11:35:48;;;;;;;3.95;3.10;;;21.30;99.90;;;;;;4993976;28;20061;-78
2021/09/14 11:38:18;;;;;;;4.13;2.30;;;21.40;99.90;;;;;;4994294;28;20046;-78
2021/09/14 11:40:54;;;;;;;3.92;2.05;;;21.50;99.90;;;;;;4978492;28;20053;-79
2021/09/14 11:43:33;;;;;;;8.55;3.20;;;21.50;99.90;;;;;;4992794;28;20061;-79
2021/09/14 11:46:10;;;;;;;6.60;2.80;;;21.50;99.90;;;;;;5001199;28;20065;-79
2021/09/14 11:48:36;;;;;;;7.32;3.70;;;21.50;99.90;;;;;;5008651;28;20045;-78
2021/09/14 11:51:03;;;;;;;10.10;4.00;;;21.50;99.90;;;;;;4973490;28;20093;-78
2021/09/14 11:53:29;;;;;;;8.02;3.00;;;21.60;99.90;;;;;;4992524;28;20074;-79
2021/09/14 11:55:56;;;;;;;7.22;2.30;;;21.60;99.90;;;;;;5008848;28;20046;-79
2021/09/14 11:58:35;;;;;;;6.78;2.42;;;21.70;99.90;;;;;;4991614;28;20045;-79
2021/09/14 12:01:07;;;;;;;4.15;2.92;;;21.80;99.90;;;;;;5006587;28;20484;-83
2021/09/14 12:03:51;;;;;;;4.72;3.20;;;22.00;99.90;;;;;;5023006;28;20124;-80
2021/09/14 12:06:29;;;;;;;3.90;2.13;;;22.10;99.90;;;;;;5005689;28;20092;-79
2021/09/14 12:09:09;;;;;;;8.80;2.70;;;22.20;99.90;;;;;;4991893;28;20042;-77
2021/09/14 12:11:39;;;;;;;3.70;2.13;;;22.20;99.90;;;;;;5008300;28;20041;-79
2021/09/14 12:14:06;;;;;;;6.28;3.20;;;22.20;99.90;;;;;;4991736;28;20574;-78
2021/09/14 12:16:37;;;;;;;4.05;2.78;;;22.30;99.90;;;;;;4991662;28;20041;-78
2021/09/14 12:19:03;;;;;;;6.65;2.92;;;22.30;99.90;;;;;;5006890;28;20046;-78
2021/09/14 12:21:29;;;;;;;7.25;3.50;;;22.30;99.90;;;;;;4991114;28;20046;-77
2021/09/14 12:23:56;;;;;;;8.48;2.90;;;22.40;99.90;;;;;;4992630;28;20052;-79
2021/09/14 12:26:27;;;;;;;4.93;3.47;;;22.30;99.90;;;;;;5007476;28;20046;-77
2021/09/14 12:28:58;;;;;;;3.67;2.83;;;22.30;99.90;;;;;;5008315;28;20077;-77
2021/09/14 12:31:25;;;;;;;5.80;2.80;;;22.40;99.90;;;;;;4975476;28;20100;-79
2021/09/14 12:33:51;;;;;;;4.80;2.92;;;22.50;99.90;;;;;;4998744;28;20061;-78
2021/09/14 12:36:17;;;;;;;6.57;3.53;;;22.60;99.90;;;;;;4996370;28;20066;-78
2021/09/14 12:38:44;;;;;;;5.70;2.90;;;22.70;99.90;;;;;;4991184;28;20046;-80
2021/09/14 12:41:10;;;;;;;5.05;2.67;;;22.80;99.90;;;;;;4992176;28;20369;-81
2021/09/14 12:43:36;;;;;;;4.43;2.72;;;22.90;99.90;;;;;;5002283;28;20041;-79
2021/09/14 12:46:03;;;;;;;2.85;2.30;;;23.00;99.90;;;;;;4972277;28;20109;-78
2021/09/14 12:48:29;;;;;;;5.80;2.60;;;22.90;99.90;;;;;;5003332;28;20042;-79
2021/09/14 12:50:55;;;;;;;7.57;2.90;;;23.00;99.90;;;;;;5008397;28;20064;-79
2021/09/14 12:53:21;;;;;;;3.97;1.98;;;23.00;99.90;;;;;;4990792;28;20100;-78
2021/09/14 12:55:48;;;;;;;9.82;2.92;;;23.10;99.90;;;;;;4991163;28;20076;-77
2021/09/14 12:58:13;;;;;;;3.13;2.40;;;23.30;99.90;;;;;;5007257;28;20042;-76
2021/09/14 13:00:39;;;;;;;8.68;2.85;;;23.40;99.90;;;;;;4974703;28;20048;-80
2021/09/14 13:03:08;;;;;;;5.07;2.65;;;23.50;99.90;;;;;;5008427;28;20050;-76
2021/09/14 13:05:34;;;;;;;4.13;2.10;;;23.50;99.90;;;;;;4988133;28;20523;-80
2021/09/14 13:08:00;;;;;;;4.88;2.97;;;23.70;99.90;;;;;;5008444;28;20045;-77
2021/09/14 13:10:25;;;;;;;3.55;2.33;;;23.90;99.90;;;;;;5008628;28;20053;-79
2021/09/14 13:16:10;;;;;;;4.57;2.50;;;24.20;99.90;;;;;;4992021;28;20495;-79
2021/09/14 13:18:23;;;;;;;5.55;2.72;;;24.40;99.90;;;;;;5003223;28;20057;-79
2021/09/14 13:20:48;;;;;;;5.38;3.40;;;24.40;99.90;;;;;;4991468;28;20049;-77
2021/09/14 13:23:14;;;;;;;8.57;4.32;;;24.60;99.90;;;;;;5002853;28;20415;-79
2021/09/14 13:25:40;;;;;;;4.32;3.13;;;24.50;99.90;;;;;;4990904;28;20127;-80
2021/09/14 13:28:06;;;;;;;4.45;2.90;;;24.40;99.90;;;;;;4958367;28;20060;-80
2021/09/14 13:30:33;;;;;;;4.00;2.50;;;24.60;99.90;;;;;;4987001;28;20046;-79
2021/09/14 13:32:58;;;;;;;3.13;2.30;;;24.90;99.90;;;;;;5001737;28;20484;-78
2021/09/14 13:35:24;;;;;;;5.57;3.35;;;25.20;99.90;;;;;;5000404;28;20066;-77
2021/09/14 13:37:50;;;;;;;3.75;2.83;;;25.60;99.90;;;;;;5001125;28;20050;-78
2021/09/14 13:40:16;;;;;;;2.88;2.17;;;25.80;99.90;;;;;;5004163;28;20049;-79
2021/09/14 13:42:41;;;;;;;3.63;2.53;;;25.90;99.90;;;;;;4992126;28;20551;-78
2021/09/14 13:47:51;;;;;;;3.40;2.58;;;26.30;99.90;;;;;;4986767;28;20054;-80
2021/09/14 13:50:17;;;;;;;5.22;2.80;;;26.20;99.90;;;;;;5000233;28;20058;-79
2021/09/14 13:52:43;;;;;;;4.05;2.83;;;26.10;99.90;;;;;;4988601;28;20073;-77
2021/09/14 13:55:09;;;;;;;5.25;2.65;;;25.80;99.90;;;;;;4988003;28;20140;-78
2021/09/14 13:57:35;;;;;;;4.28;2.72;;;25.60;99.90;;;;;;5000168;28;20761;-77